sensor_id;sensor_type;location;lat;lon;timestamp;P1;durP1;ratioP1;P2;durP2;ratioP2
20365;SDS011;10341;49.894;8.822;2022-07-21T00:03:14;16.63;;;11.25;;
20365;SDS011;10341;49.894;8.822;2022-07-21T00:08:33;14.23;;;11.00;;
20365;SDS011;10341;49.894;8.822;2022-07-21T00:13:53;16.70;;;12.38;;
20365;SDS011;10341;49.894;8.822;2022-07-21T00:19:12;19.88;;;13.45;;
20365;SDS011;10341;49.894;8.822;2022-07-21T00:24:31;19.80;;;14.07;;
20365;SDS011;10341;49.894;8.822;2022-07-21T00:29:50;18.67;;;13.02;;
20365;SDS011;10341;49.894;8.822;2022-07-21T00:35:10;18.75;;;12.63;;
20365;SDS011;10341;49.894;8.822;2022-07-21T00:40:30;18.33;;;12.85;;
20365;SDS011;10341;49.894;8.822;2022-07-21T00:45:52;15.03;;;11.93;;
20365;SDS011;10341;49.894;8.822;2022-07-21T00:51:12;16.20;;;11.65;;
20365;SDS011;10341;49.894;8.822;2022-07-21T00:56:31;17.97;;;11.70;;
20365;SDS011;10341;49.894;8.822;2022-07-21T01:01:51;14.57;;;11.20;;
20365;SDS011;10341;49.894;8.822;2022-07-21T01:07:10;13.98;;;10.40;;
20365;SDS011;10341;49.894;8.822;2022-07-21T01:12:29;15.97;;;10.10;;
20365;SDS011;10341;49.894;8.822;2022-07-21T01:17:48;14.13;;;9.75;;
20365;SDS011;10341;49.894;8.822;2022-07-21T01:23:08;14.23;;;10.00;;
20365;SDS011;10341;49.894;8.822;2022-07-21T01:28:27;16.02;;;10.98;;
20365;SDS011;10341;49.894;8.822;2022-07-21T01:33:47;15.50;;;10.20;;
20365;SDS011;10341;49.894;8.822;2022-07-21T01:39:06;18.60;;;11.63;;
20365;SDS011;10341;49.894;8.822;2022-07-21T01:44:44;16.05;;;11.13;;
20365;SDS011;10341;49.894;8.822;2022-07-21T01:50:04;16.90;;;12.23;;
20365;SDS011;10341;49.894;8.822;2022-07-21T01:55:23;20.07;;;14.10;;
20365;SDS011;10341;49.894;8.822;2022-07-21T02:00:44;22.88;;;15.93;;
20365;SDS011;10341;49.894;8.822;2022-07-21T02:06:03;23.85;;;17.27;;
20365;SDS011;10341;49.894;8.822;2022-07-21T02:11:23;26.15;;;17.30;;
20365;SDS011;10341;49.894;8.822;2022-07-21T02:16:43;27.60;;;18.17;;
20365;SDS011;10341;49.894;8.822;2022-07-21T02:22:02;23.50;;;17.40;;
20365;SDS011;10341;49.894;8.822;2022-07-21T02:27:22;25.27;;;18.25;;
20365;SDS011;10341;49.894;8.822;2022-07-21T02:32:41;25.23;;;17.83;;
20365;SDS011;10341;49.894;8.822;2022-07-21T02:38:01;27.42;;;17.55;;
20365;SDS011;10341;49.894;8.822;2022-07-21T02:43:19;26.67;;;18.00;;
20365;SDS011;10341;49.894;8.822;2022-07-21T02:48:39;26.95;;;17.55;;
20365;SDS011;10341;49.894;8.822;2022-07-21T02:53:58;22.30;;;15.95;;
20365;SDS011;10341;49.894;8.822;2022-07-21T02:59:17;23.15;;;15.80;;
20365;SDS011;10341;49.894;8.822;2022-07-21T03:04:36;23.45;;;16.73;;
20365;SDS011;10341;49.894;8.822;2022-07-21T03:09:55;24.45;;;15.65;;
20365;SDS011;10341;49.894;8.822;2022-07-21T03:15:14;20.15;;;14.70;;
20365;SDS011;10341;49.894;8.822;2022-07-21T03:20:35;23.55;;;15.13;;
20365;SDS011;10341;49.894;8.822;2022-07-21T03:25:57;20.75;;;13.38;;
20365;SDS011;10341;49.894;8.822;2022-07-21T03:31:17;18.93;;;11.83;;
20365;SDS011;10341;49.894;8.822;2022-07-21T03:36:36;21.05;;;13.32;;
20365;SDS011;10341;49.894;8.822;2022-07-21T03:41:54;18.77;;;13.82;;
20365;SDS011;10341;49.894;8.822;2022-07-21T03:47:14;19.03;;;13.60;;
20365;SDS011;10341;49.894;8.822;2022-07-21T03:52:34;18.43;;;12.33;;
20365;SDS011;10341;49.894;8.822;2022-07-21T03:57:54;16.67;;;12.45;;
20365;SDS011;10341;49.894;8.822;2022-07-21T04:03:15;17.27;;;12.55;;
20365;SDS011;10341;49.894;8.822;2022-07-21T04:08:34;13.65;;;10.55;;
20365;SDS011;10341;49.894;8.822;2022-07-21T04:13:53;13.82;;;9.90;;
20365;SDS011;10341;49.894;8.822;2022-07-21T04:19:12;15.13;;;10.00;;
20365;SDS011;10341;49.894;8.822;2022-07-21T04:24:31;13.18;;;9.57;;
20365;SDS011;10341;49.894;8.822;2022-07-21T04:29:50;13.57;;;9.20;;
20365;SDS011;10341;49.894;8.822;2022-07-21T04:35:10;11.82;;;9.30;;
20365;SDS011;10341;49.894;8.822;2022-07-21T04:40:29;14.93;;;8.57;;
20365;SDS011;10341;49.894;8.822;2022-07-21T04:45:48;11.75;;;8.35;;
20365;SDS011;10341;49.894;8.822;2022-07-21T04:51:07;11.40;;;8.13;;
20365;SDS011;10341;49.894;8.822;2022-07-21T04:56:26;9.85;;;7.50;;
20365;SDS011;10341;49.894;8.822;2022-07-21T05:01:46;10.93;;;6.60;;
20365;SDS011;10341;49.894;8.822;2022-07-21T05:07:05;8.52;;;6.35;;
20365;SDS011;10341;49.894;8.822;2022-07-21T05:12:24;8.13;;;6.25;;
20365;SDS011;10341;49.894;8.822;2022-07-21T05:17:44;9.10;;;6.55;;
20365;SDS011;10341;49.894;8.822;2022-07-21T05:23:04;7.28;;;6.03;;
20365;SDS011;10341;49.894;8.822;2022-07-21T05:28:23;8.10;;;5.70;;
20365;SDS011;10341;49.894;8.822;2022-07-21T05:33:42;8.40;;;5.78;;
20365;SDS011;10341;49.894;8.822;2022-07-21T05:39:01;9.18;;;5.57;;
20365;SDS011;10341;49.894;8.822;2022-07-21T05:44:21;7.63;;;5.70;;
20365;SDS011;10341;49.894;8.822;2022-07-21T05:49:41;7.82;;;5.65;;
20365;SDS011;10341;49.894;8.822;2022-07-21T05:54:59;8.13;;;5.53;;
20365;SDS011;10341;49.894;8.822;2022-07-21T06:00:19;7.45;;;5.60;;
20365;SDS011;10341;49.894;8.822;2022-07-21T06:05:39;7.85;;;5.85;;
20365;SDS011;10341;49.894;8.822;2022-07-21T06:10:58;6.03;;;4.70;;
20365;SDS011;10341;49.894;8.822;2022-07-21T06:21:37;6.38;;;5.00;;
20365;SDS011;10341;49.894;8.822;2022-07-21T06:26:56;6.63;;;5.05;;
20365;SDS011;10341;49.894;8.822;2022-07-21T06:32:15;6.65;;;4.82;;
20365;SDS011;10341;49.894;8.822;2022-07-21T06:37:34;8.35;;;5.30;;
20365;SDS011;10341;49.894;8.822;2022-07-21T06:42:53;6.93;;;5.28;;
20365;SDS011;10341;49.894;8.822;2022-07-21T06:48:13;9.63;;;6.68;;
20365;SDS011;10341;49.894;8.822;2022-07-21T06:53:32;9.05;;;6.95;;
20365;SDS011;10341;49.894;8.822;2022-07-21T06:58:51;8.13;;;6.37;;
20365;SDS011;10341;49.894;8.822;2022-07-21T07:04:11;7.65;;;6.03;;
20365;SDS011;10341;49.894;8.822;2022-07-21T07:09:30;11.38;;;6.05;;
20365;SDS011;10341;49.894;8.822;2022-07-21T07:14:49;6.80;;;5.67;;
20365;SDS011;10341;49.894;8.822;2022-07-21T07:20:08;8.80;;;5.15;;
20365;SDS011;10341;49.894;8.822;2022-07-21T07:25:29;7.40;;;4.88;;
20365;SDS011;10341;49.894;8.822;2022-07-21T07:36:08;7.40;;;5.35;;
20365;SDS011;10341;49.894;8.822;2022-07-21T07:41:30;7.82;;;5.40;;
20365;SDS011;10341;49.894;8.822;2022-07-21T07:46:50;6.38;;;5.07;;
20365;SDS011;10341;49.894;8.822;2022-07-21T07:52:09;9.40;;;5.80;;
20365;SDS011;10341;49.894;8.822;2022-07-21T07:57:29;5.88;;;4.68;;
20365;SDS011;10341;49.894;8.822;2022-07-21T08:02:48;8.75;;;5.10;;
20365;SDS011;10341;49.894;8.822;2022-07-21T08:08:08;7.13;;;5.20;;
20365;SDS011;10341;49.894;8.822;2022-07-21T08:13:27;5.90;;;4.60;;
20365;SDS011;10341;49.894;8.822;2022-07-21T08:18:46;5.50;;;4.88;;
20365;SDS011;10341;49.894;8.822;2022-07-21T08:24:05;6.90;;;4.80;;
20365;SDS011;10341;49.894;8.822;2022-07-21T08:29:25;7.65;;;5.88;;
20365;SDS011;10341;49.894;8.822;2022-07-21T08:34:44;6.40;;;5.03;;
20365;SDS011;10341;49.894;8.822;2022-07-21T08:45:25;8.00;;;5.47;;
20365;SDS011;10341;49.894;8.822;2022-07-21T08:50:46;6.57;;;5.70;;
20365;SDS011;10341;49.894;8.822;2022-07-21T08:56:05;9.85;;;6.93;;
20365;SDS011;10341;49.894;8.822;2022-07-21T09:01:25;8.32;;;6.50;;
20365;SDS011;10341;49.894;8.822;2022-07-21T09:06:55;5.97;;;4.72;;
20365;SDS011;10341;49.894;8.822;2022-07-21T09:12:16;9.77;;;6.15;;
20365;SDS011;10341;49.894;8.822;2022-07-21T09:17:35;7.95;;;5.78;;
20365;SDS011;10341;49.894;8.822;2022-07-21T09:28:46;7.72;;;6.07;;
20365;SDS011;10341;49.894;8.822;2022-07-21T09:34:12;8.65;;;5.38;;
20365;SDS011;10341;49.894;8.822;2022-07-21T09:39:52;6.70;;;5.85;;
20365;SDS011;10341;49.894;8.822;2022-07-21T09:45:13;10.02;;;7.10;;
20365;SDS011;10341;49.894;8.822;2022-07-21T09:50:36;7.47;;;6.40;;
20365;SDS011;10341;49.894;8.822;2022-07-21T09:55:55;11.60;;;7.43;;
20365;SDS011;10341;49.894;8.822;2022-07-21T10:01:15;10.20;;;6.20;;
20365;SDS011;10341;49.894;8.822;2022-07-21T10:06:35;8.30;;;5.63;;
20365;SDS011;10341;49.894;8.822;2022-07-21T10:11:56;6.25;;;5.30;;
20365;SDS011;10341;49.894;8.822;2022-07-21T10:17:16;7.78;;;6.00;;
20365;SDS011;10341;49.894;8.822;2022-07-21T10:22:48;7.80;;;5.47;;
20365;SDS011;10341;49.894;8.822;2022-07-21T10:28:28;7.07;;;5.68;;
20365;SDS011;10341;49.894;8.822;2022-07-21T10:55:13;8.65;;;4.55;;
20365;SDS011;10341;49.894;8.822;2022-07-21T11:00:46;5.07;;;4.20;;
20365;SDS011;10341;49.894;8.822;2022-07-21T11:11:33;5.13;;;4.07;;
20365;SDS011;10341;49.894;8.822;2022-07-21T11:22:19;4.80;;;4.03;;
20365;SDS011;10341;49.894;8.822;2022-07-21T11:27:40;4.32;;;3.63;;
20365;SDS011;10341;49.894;8.822;2022-07-21T11:32:59;3.33;;;2.90;;
20365;SDS011;10341;49.894;8.822;2022-07-21T11:38:19;3.47;;;3.17;;
20365;SDS011;10341;49.894;8.822;2022-07-21T11:43:41;4.13;;;3.50;;
20365;SDS011;10341;49.894;8.822;2022-07-21T11:49:03;3.90;;;3.50;;
20365;SDS011;10341;49.894;8.822;2022-07-21T11:54:28;3.58;;;3.00;;
20365;SDS011;10341;49.894;8.822;2022-07-21T11:59:48;4.03;;;3.10;;
20365;SDS011;10341;49.894;8.822;2022-07-21T12:05:08;3.15;;;2.60;;
20365;SDS011;10341;49.894;8.822;2022-07-21T12:10:28;3.63;;;3.33;;
20365;SDS011;10341;49.894;8.822;2022-07-21T12:15:48;5.03;;;3.50;;
20365;SDS011;10341;49.894;8.822;2022-07-21T12:21:08;3.15;;;2.85;;
20365;SDS011;10341;49.894;8.822;2022-07-21T12:26:27;3.42;;;2.88;;
20365;SDS011;10341;49.894;8.822;2022-07-21T12:31:46;3.90;;;3.00;;
20365;SDS011;10341;49.894;8.822;2022-07-21T12:37:05;3.67;;;2.90;;
20365;SDS011;10341;49.894;8.822;2022-07-21T12:42:29;6.13;;;3.63;;
20365;SDS011;10341;49.894;8.822;2022-07-21T12:48:10;5.00;;;3.72;;
20365;SDS011;10341;49.894;8.822;2022-07-21T12:53:32;5.68;;;3.47;;
20365;SDS011;10341;49.894;8.822;2022-07-21T12:58:54;4.78;;;3.63;;
20365;SDS011;10341;49.894;8.822;2022-07-21T13:04:14;5.13;;;3.75;;
20365;SDS011;10341;49.894;8.822;2022-07-21T13:09:33;5.75;;;4.07;;
20365;SDS011;10341;49.894;8.822;2022-07-21T13:14:52;5.30;;;4.22;;
20365;SDS011;10341;49.894;8.822;2022-07-21T13:20:12;4.15;;;3.70;;
20365;SDS011;10341;49.894;8.822;2022-07-21T13:25:32;5.15;;;3.78;;
20365;SDS011;10341;49.894;8.822;2022-07-21T13:30:51;5.38;;;4.30;;
20365;SDS011;10341;49.894;8.822;2022-07-21T13:36:10;4.85;;;3.97;;
20365;SDS011;10341;49.894;8.822;2022-07-21T13:41:29;4.55;;;3.75;;
20365;SDS011;10341;49.894;8.822;2022-07-21T13:46:50;5.53;;;4.50;;
20365;SDS011;10341;49.894;8.822;2022-07-21T13:52:09;7.53;;;5.13;;
20365;SDS011;10341;49.894;8.822;2022-07-21T13:57:28;6.00;;;4.82;;
20365;SDS011;10341;49.894;8.822;2022-07-21T14:08:07;6.13;;;5.20;;
20365;SDS011;10341;49.894;8.822;2022-07-21T14:13:26;6.15;;;5.22;;
20365;SDS011;10341;49.894;8.822;2022-07-21T14:18:46;6.47;;;5.30;;
20365;SDS011;10341;49.894;8.822;2022-07-21T14:24:05;8.70;;;6.00;;
20365;SDS011;10341;49.894;8.822;2022-07-21T14:29:43;6.88;;;5.15;;
20365;SDS011;10341;49.894;8.822;2022-07-21T14:35:02;8.93;;;5.37;;
20365;SDS011;10341;49.894;8.822;2022-07-21T14:40:22;7.07;;;5.65;;
20365;SDS011;10341;49.894;8.822;2022-07-21T14:45:42;7.22;;;5.40;;
20365;SDS011;10341;49.894;8.822;2022-07-21T14:51:01;6.03;;;4.97;;
20365;SDS011;10341;49.894;8.822;2022-07-21T14:56:20;5.75;;;5.18;;
20365;SDS011;10341;49.894;8.822;2022-07-21T15:01:39;5.87;;;4.97;;
20365;SDS011;10341;49.894;8.822;2022-07-21T15:06:58;6.55;;;5.00;;
20365;SDS011;10341;49.894;8.822;2022-07-21T15:12:18;6.18;;;5.00;;
20365;SDS011;10341;49.894;8.822;2022-07-21T15:17:37;5.25;;;4.30;;
20365;SDS011;10341;49.894;8.822;2022-07-21T15:22:57;5.53;;;4.35;;
20365;SDS011;10341;49.894;8.822;2022-07-21T15:28:16;5.53;;;4.50;;
20365;SDS011;10341;49.894;8.822;2022-07-21T15:38:56;4.82;;;4.35;;
20365;SDS011;10341;49.894;8.822;2022-07-21T15:44:18;5.05;;;4.10;;
20365;SDS011;10341;49.894;8.822;2022-07-21T15:49:37;7.13;;;4.33;;
20365;SDS011;10341;49.894;8.822;2022-07-21T15:54:56;5.37;;;3.90;;
20365;SDS011;10341;49.894;8.822;2022-07-21T16:00:15;5.70;;;4.57;;
20365;SDS011;10341;49.894;8.822;2022-07-21T16:05:34;4.40;;;4.00;;
20365;SDS011;10341;49.894;8.822;2022-07-21T16:10:53;7.50;;;4.30;;
20365;SDS011;10341;49.894;8.822;2022-07-21T16:16:12;7.20;;;4.57;;
20365;SDS011;10341;49.894;8.822;2022-07-21T16:21:32;4.82;;;4.30;;
20365;SDS011;10341;49.894;8.822;2022-07-21T16:26:51;6.13;;;4.18;;
20365;SDS011;10341;49.894;8.822;2022-07-21T16:32:10;4.57;;;3.97;;
20365;SDS011;10341;49.894;8.822;2022-07-21T16:42:50;5.20;;;3.80;;
20365;SDS011;10341;49.894;8.822;2022-07-21T16:48:10;9.07;;;4.10;;
20365;SDS011;10341;49.894;8.822;2022-07-21T16:53:29;3.80;;;3.50;;
20365;SDS011;10341;49.894;8.822;2022-07-21T16:58:49;4.72;;;3.47;;
20365;SDS011;10341;49.894;8.822;2022-07-21T17:04:08;4.20;;;3.47;;
20365;SDS011;10341;49.894;8.822;2022-07-21T17:09:28;4.03;;;3.58;;
20365;SDS011;10341;49.894;8.822;2022-07-21T17:14:47;3.77;;;3.30;;
20365;SDS011;10341;49.894;8.822;2022-07-21T17:20:06;4.77;;;4.03;;
20365;SDS011;10341;49.894;8.822;2022-07-21T17:25:27;5.55;;;3.92;;
20365;SDS011;10341;49.894;8.822;2022-07-21T17:30:46;6.30;;;3.80;;
20365;SDS011;10341;49.894;8.822;2022-07-21T17:36:06;4.28;;;3.67;;
20365;SDS011;10341;49.894;8.822;2022-07-21T17:41:25;5.28;;;4.10;;
20365;SDS011;10341;49.894;8.822;2022-07-21T17:46:44;3.90;;;3.37;;
20365;SDS011;10341;49.894;8.822;2022-07-21T17:52:03;4.50;;;3.60;;
20365;SDS011;10341;49.894;8.822;2022-07-21T17:57:23;7.20;;;5.28;;
20365;SDS011;10341;49.894;8.822;2022-07-21T18:03:01;6.97;;;4.10;;
20365;SDS011;10341;49.894;8.822;2022-07-21T18:08:21;4.60;;;4.00;;
20365;SDS011;10341;49.894;8.822;2022-07-21T18:13:40;6.22;;;3.90;;
20365;SDS011;10341;49.894;8.822;2022-07-21T18:19:00;6.93;;;4.35;;
20365;SDS011;10341;49.894;8.822;2022-07-21T18:24:19;4.63;;;4.03;;
20365;SDS011;10341;49.894;8.822;2022-07-21T18:29:38;5.03;;;4.13;;
20365;SDS011;10341;49.894;8.822;2022-07-21T18:34:57;5.07;;;4.20;;
20365;SDS011;10341;49.894;8.822;2022-07-21T18:40:16;7.00;;;4.53;;
20365;SDS011;10341;49.894;8.822;2022-07-21T18:45:35;5.20;;;4.33;;
20365;SDS011;10341;49.894;8.822;2022-07-21T18:50:56;5.68;;;4.35;;
20365;SDS011;10341;49.894;8.822;2022-07-21T18:56:15;4.97;;;4.25;;
20365;SDS011;10341;49.894;8.822;2022-07-21T19:01:35;5.77;;;4.20;;
20365;SDS011;10341;49.894;8.822;2022-07-21T19:06:54;6.00;;;4.57;;
20365;SDS011;10341;49.894;8.822;2022-07-21T19:12:14;6.20;;;4.70;;
20365;SDS011;10341;49.894;8.822;2022-07-21T19:17:33;6.40;;;3.90;;
20365;SDS011;10341;49.894;8.822;2022-07-21T19:22:52;8.93;;;7.18;;
20365;SDS011;10341;49.894;8.822;2022-07-21T19:28:11;8.88;;;6.25;;
20365;SDS011;10341;49.894;8.822;2022-07-21T19:33:30;6.55;;;4.93;;
20365;SDS011;10341;49.894;8.822;2022-07-21T19:38:49;7.32;;;4.80;;
20365;SDS011;10341;49.894;8.822;2022-07-21T19:44:08;6.72;;;5.40;;
20365;SDS011;10341;49.894;8.822;2022-07-21T19:49:28;7.40;;;5.18;;
20365;SDS011;10341;49.894;8.822;2022-07-21T19:54:47;8.13;;;6.65;;
20365;SDS011;10341;49.894;8.822;2022-07-21T20:00:07;10.10;;;6.78;;
20365;SDS011;10341;49.894;8.822;2022-07-21T20:05:30;7.50;;;5.15;;
20365;SDS011;10341;49.894;8.822;2022-07-21T20:16:09;6.57;;;5.10;;
20365;SDS011;10341;49.894;8.822;2022-07-21T20:21:28;7.97;;;6.18;;
20365;SDS011;10341;49.894;8.822;2022-07-21T20:26:48;6.53;;;5.45;;
20365;SDS011;10341;49.894;8.822;2022-07-21T20:32:08;6.75;;;5.03;;
20365;SDS011;10341;49.894;8.822;2022-07-21T20:37:27;6.83;;;5.40;;
20365;SDS011;10341;49.894;8.822;2022-07-21T20:42:46;9.60;;;6.63;;
20365;SDS011;10341;49.894;8.822;2022-07-21T20:48:06;8.60;;;5.47;;
20365;SDS011;10341;49.894;8.822;2022-07-21T20:53:25;7.33;;;5.80;;
20365;SDS011;10341;49.894;8.822;2022-07-21T20:58:44;7.47;;;5.72;;
20365;SDS011;10341;49.894;8.822;2022-07-21T21:04:04;8.00;;;5.60;;
20365;SDS011;10341;49.894;8.822;2022-07-21T21:09:23;9.00;;;6.15;;
20365;SDS011;10341;49.894;8.822;2022-07-21T21:14:42;7.78;;;6.07;;
20365;SDS011;10341;49.894;8.822;2022-07-21T21:20:02;6.65;;;5.65;;
20365;SDS011;10341;49.894;8.822;2022-07-21T21:25:22;8.95;;;6.65;;
20365;SDS011;10341;49.894;8.822;2022-07-21T21:30:41;8.97;;;6.53;;
20365;SDS011;10341;49.894;8.822;2022-07-21T21:36:00;8.93;;;5.80;;
20365;SDS011;10341;49.894;8.822;2022-07-21T21:41:20;7.07;;;5.60;;
20365;SDS011;10341;49.894;8.822;2022-07-21T21:46:39;7.85;;;5.45;;
20365;SDS011;10341;49.894;8.822;2022-07-21T21:51:58;7.93;;;5.15;;
20365;SDS011;10341;49.894;8.822;2022-07-21T21:57:18;6.32;;;5.22;;
20365;SDS011;10341;49.894;8.822;2022-07-21T22:02:37;6.32;;;5.18;;
20365;SDS011;10341;49.894;8.822;2022-07-21T22:07:56;7.32;;;5.00;;
20365;SDS011;10341;49.894;8.822;2022-07-21T22:13:15;7.38;;;5.65;;
20365;SDS011;10341;49.894;8.822;2022-07-21T22:18:34;7.90;;;5.83;;
20365;SDS011;10341;49.894;8.822;2022-07-21T22:23:54;9.18;;;6.80;;
20365;SDS011;10341;49.894;8.822;2022-07-21T22:29:15;11.68;;;6.60;;
20365;SDS011;10341;49.894;8.822;2022-07-21T22:34:34;7.78;;;6.85;;
20365;SDS011;10341;49.894;8.822;2022-07-21T22:39:53;8.15;;;6.55;;
20365;SDS011;10341;49.894;8.822;2022-07-21T22:45:12;10.88;;;6.30;;
20365;SDS011;10341;49.894;8.822;2022-07-21T22:50:31;8.77;;;6.45;;
20365;SDS011;10341;49.894;8.822;2022-07-21T22:55:52;8.57;;;6.63;;
20365;SDS011;10341;49.894;8.822;2022-07-21T23:01:11;9.70;;;6.43;;
20365;SDS011;10341;49.894;8.822;2022-07-21T23:06:30;7.95;;;6.10;;
20365;SDS011;10341;49.894;8.822;2022-07-21T23:11:50;9.27;;;6.55;;
20365;SDS011;10341;49.894;8.822;2022-07-21T23:17:09;6.80;;;5.40;;
20365;SDS011;10341;49.894;8.822;2022-07-21T23:22:28;8.20;;;6.32;;
20365;SDS011;10341;49.894;8.822;2022-07-21T23:27:47;8.65;;;6.18;;
20365;SDS011;10341;49.894;8.822;2022-07-21T23:33:06;8.82;;;6.18;;
20365;SDS011;10341;49.894;8.822;2022-07-21T23:38:25;7.75;;;6.57;;
20365;SDS011;10341;49.894;8.822;2022-07-21T23:43:45;10.13;;;6.97;;
20365;SDS011;10341;49.894;8.822;2022-07-21T23:49:04;8.15;;;5.95;;
20365;SDS011;10341;49.894;8.822;2022-07-21T23:54:23;8.70;;;6.35;;
20365;SDS011;10341;49.894;8.822;2022-07-21T23:59:42;9.55;;;7.15;;
